createdAt,value
2018-04-01T00:00:00.802Z,14.00
2018-04-01T00:01:04.888Z,19.50
2018-04-01T00:02:08.281Z,14.00
2018-04-01T00:03:12.777Z,15.00
2018-04-01T00:04:16.278Z,14.00
2018-04-01T00:05:20.088Z,16.00
2018-04-01T00:06:23.673Z,11.50
2018-04-01T00:07:27.061Z,14.00
2018-04-01T00:08:30.412Z,15.00
2018-04-01T00:09:33.817Z,13.00
2018-04-01T00:10:37.329Z,12.50
2018-04-01T00:11:40.920Z,12.00
2018-04-01T00:12:44.160Z,11.75
2018-04-01T00:13:47.442Z,12.00
2018-04-01T00:14:50.861Z,11.00
2018-04-01T00:15:54.240Z,12.00
2018-04-01T00:16:57.546Z,9.50
2018-04-01T00:18:01.270Z,10.00
2018-04-01T00:19:05.626Z,13.50
2018-04-01T00:20:09.110Z,9.25
2018-04-01T00:21:12.767Z,10.00
2018-04-01T00:22:16.153Z,9.75
2018-04-01T00:23:19.545Z,11.50
2018-04-01T00:24:23.351Z,10.50
2018-04-01T00:25:26.780Z,13.00
2018-04-01T00:26:30.279Z,15.00
2018-04-01T00:27:33.717Z,14.00
2018-04-01T00:28:37.119Z,15.50
2018-04-01T00:29:40.572Z,17.00
2018-04-01T00:30:44.501Z,18.00
2018-04-01T00:31:48.083Z,16.00
2018-04-01T00:32:51.812Z,17.00
2018-04-01T00:33:55.192Z,17.00
2018-04-01T00:34:58.840Z,17.50
2018-04-01T00:36:02.536Z,14.50
2018-04-01T00:37:06.158Z,13.75
2018-04-01T00:38:09.647Z,12.75
2018-04-01T00:39:13.070Z,17.50
2018-04-01T00:40:16.441Z,14.00
2018-04-01T00:41:20.052Z,14.75
2018-04-01T00:42:23.482Z,13.00
2018-04-01T00:43:26.900Z,14.25
2018-04-01T00:44:30.341Z,13.75
2018-04-01T00:45:33.745Z,10.50
2018-04-01T00:46:37.218Z,15.00
2018-04-01T00:47:40.735Z,15.75
2018-04-01T00:48:44.392Z,13.50
2018-04-01T00:49:48.336Z,13.25
2018-04-01T00:50:52.041Z,12.75
2018-04-01T00:51:55.492Z,14.25
2018-04-01T00:52:59.009Z,13.50
2018-04-01T00:54:02.732Z,12.50
2018-04-01T00:55:06.182Z,11.00
2018-04-01T00:56:09.899Z,13.00
2018-04-01T00:57:13.352Z,14.00
2018-04-01T00:58:16.815Z,14.25
2018-04-01T00:59:21.108Z,13.75
2018-04-01T01:00:24.693Z,14.00
2018-04-01T01:01:28.318Z,14.00
2018-04-01T01:02:31.647Z,13.50
2018-04-01T01:03:35.150Z,16.75
2018-04-01T01:04:40.087Z,13.00
2018-04-01T01:05:43.553Z,13.00
2018-04-01T01:06:47.095Z,15.75
2018-04-01T01:07:50.555Z,15.00
2018-04-01T01:08:54.226Z,15.00
2018-04-01T01:09:57.791Z,14.00
2018-04-01T01:11:01.321Z,14.00
2018-04-01T01:12:04.862Z,13.50
2018-04-01T01:13:08.342Z,15.00
2018-04-01T01:14:12.006Z,15.75
2018-04-01T01:15:15.842Z,13.00
2018-04-01T01:16:19.115Z,13.00
2018-04-01T01:17:22.450Z,13.00
2018-04-01T01:18:25.788Z,14.00
2018-04-01T01:19:29.720Z,14.50
2018-04-01T01:20:33.145Z,15.25
2018-04-01T01:21:36.844Z,13.00
2018-04-01T01:22:40.364Z,12.00
2018-04-01T01:23:44.007Z,11.00
2018-04-01T01:26:02.048Z,13.50
2018-04-01T01:27:05.892Z,9.00
2018-04-01T01:28:09.613Z,11.00
2018-04-01T01:29:13.064Z,10.00
2018-04-01T01:30:16.680Z,9.00
2018-04-01T01:31:20.326Z,9.50
2018-04-01T01:32:24.397Z,11.00
2018-04-01T01:33:27.991Z,11.00
2018-04-01T01:34:31.910Z,9.50
2018-04-01T01:35:35.899Z,9.00
2018-04-01T01:36:39.548Z,10.50
2018-04-01T01:37:43.213Z,9.00
2018-04-01T01:38:46.942Z,8.50
2018-04-01T01:39:50.529Z,9.00
2018-04-01T01:40:54.454Z,9.50
2018-04-01T01:41:58.142Z,9.50
2018-04-01T01:43:06.037Z,8.50
2018-04-01T01:44:09.652Z,8.50
2018-04-01T01:45:13.664Z,11.00
2018-04-01T01:46:17.299Z,11.50
2018-04-01T01:47:21.260Z,12.50
2018-04-01T01:48:24.834Z,10.75
2018-04-01T01:49:28.490Z,13.50
2018-04-01T01:50:32.225Z,11.00
2018-04-01T01:51:35.648Z,13.75
2018-04-01T01:52:39.340Z,11.00
2018-04-01T01:53:43.177Z,11.50
2018-04-01T01:54:46.914Z,9.00
2018-04-01T01:55:51.377Z,13.00
2018-04-01T01:56:55.042Z,12.50
2018-04-01T01:57:58.783Z,13.00
2018-04-01T01:59:02.386Z,11.00
2018-04-01T02:00:06.242Z,11.00
2018-04-01T02:01:09.766Z,13.50
2018-04-01T02:02:14.007Z,11.00
2018-04-01T02:03:17.701Z,12.50
2018-04-01T02:04:21.157Z,12.00
2018-04-01T02:05:24.867Z,16.75
2018-04-01T02:06:28.621Z,16.50
2018-04-01T02:07:32.240Z,15.75
2018-04-01T02:08:35.613Z,15.00
2018-04-01T02:09:39.062Z,14.50
2018-04-01T02:10:42.537Z,11.00
2018-04-01T02:11:46.118Z,16.25
2018-04-01T02:12:50.134Z,15.00
2018-04-01T02:13:53.615Z,14.00
2018-04-01T02:14:56.665Z,17.25
2018-04-01T02:16:01.575Z,15.00
2018-04-01T02:17:05.340Z,13.50
2018-04-01T02:18:08.635Z,17.00
2018-04-01T02:19:12.178Z,19.50
2018-04-01T02:20:15.524Z,19.75
2018-04-01T02:21:19.007Z,16.00
2018-04-01T02:22:22.160Z,17.75
2018-04-01T02:23:25.576Z,16.00
2018-04-01T02:24:28.944Z,15.00
2018-04-01T02:25:32.412Z,17.50
2018-04-01T02:26:36.405Z,20.50
2018-04-01T02:27:40.112Z,16.50
2018-04-01T02:28:43.541Z,17.50
2018-04-01T02:29:47.029Z,15.50
2018-04-01T02:30:51.359Z,18.50
2018-04-01T02:31:55.107Z,18.50
2018-04-01T02:32:58.702Z,17.00
2018-04-01T02:34:02.367Z,19.00
2018-04-01T02:35:05.946Z,12.00
2018-04-01T02:36:09.526Z,16.50
2018-04-01T02:37:12.851Z,17.50
2018-04-01T02:38:16.502Z,13.00
2018-04-01T02:39:19.470Z,13.50
2018-04-01T02:40:22.829Z,13.00
2018-04-01T02:41:26.347Z,13.50
2018-04-01T02:42:29.558Z,14.50
2018-04-01T02:43:32.775Z,15.00
2018-04-01T02:44:36.427Z,14.50
2018-04-01T02:45:40.822Z,15.00
2018-04-01T02:46:44.252Z,13.50
2018-04-01T02:47:47.702Z,16.50
2018-04-01T02:48:51.079Z,15.00
2018-04-01T02:49:54.250Z,14.00
2018-04-01T02:50:57.753Z,12.00
2018-04-01T02:52:01.566Z,14.50
2018-04-01T02:53:04.814Z,13.50
2018-04-01T02:54:07.939Z,15.00
2018-04-01T02:55:11.370Z,19.00
2018-04-01T02:56:14.895Z,15.00
2018-04-01T02:57:18.672Z,15.50
2018-04-01T02:58:22.620Z,15.50
2018-04-01T02:59:26.053Z,14.50
2018-04-01T03:00:29.310Z,17.50
2018-04-01T03:01:32.944Z,13.00
2018-04-01T03:02:36.433Z,15.50
2018-04-01T03:03:39.873Z,15.00
2018-04-01T03:04:43.322Z,16.50
2018-04-01T03:05:46.730Z,16.50
2018-04-01T03:06:50.168Z,11.00
2018-04-01T03:07:53.548Z,9.00
2018-04-01T03:08:56.721Z,14.50
2018-04-01T03:10:00.199Z,13.00
2018-04-01T03:11:03.326Z,17.00
2018-04-01T03:12:06.800Z,14.50
2018-04-01T03:13:09.933Z,16.00
2018-04-01T03:14:13.118Z,12.00
2018-04-01T03:15:16.212Z,13.00
2018-04-01T03:16:19.651Z,14.00
2018-04-01T03:17:23.159Z,13.00
2018-04-01T03:18:26.463Z,12.00
2018-04-01T03:19:29.497Z,16.50
2018-04-01T03:20:32.796Z,16.00
2018-04-01T03:21:36.129Z,13.50
2018-04-01T03:22:39.695Z,14.50
2018-04-01T03:23:43.075Z,16.50
2018-04-01T03:24:46.436Z,13.00
2018-04-01T03:25:49.804Z,14.50
2018-04-01T03:26:52.842Z,13.50
2018-04-01T03:27:56.383Z,14.50
2018-04-01T03:29:00.018Z,14.50
2018-04-01T03:30:03.053Z,12.50
2018-04-01T03:31:06.287Z,12.00
2018-04-01T03:32:09.231Z,12.50
2018-04-01T03:33:12.167Z,9.00
2018-04-01T03:34:15.262Z,12.50
2018-04-01T03:35:18.772Z,12.50
2018-04-01T03:36:21.802Z,9.00
2018-04-01T03:37:25.140Z,12.50
2018-04-01T03:38:28.212Z,11.00
2018-04-01T03:39:31.793Z,13.00
2018-04-01T03:40:35.428Z,11.00
2018-04-01T03:41:38.882Z,11.00
2018-04-01T03:42:42.350Z,11.00
2018-04-01T03:43:46.770Z,10.50
2018-04-01T03:44:49.750Z,12.00
2018-04-01T03:45:52.910Z,11.00
2018-04-01T03:46:56.197Z,11.50
2018-04-01T03:47:59.674Z,11.00
2018-04-01T03:49:03.004Z,13.50
2018-04-01T03:50:06.408Z,13.00
2018-04-01T03:51:09.587Z,11.00
2018-04-01T03:52:12.716Z,11.00
2018-04-01T03:53:15.740Z,12.00
2018-04-01T03:54:19.229Z,11.00
2018-04-01T03:55:22.589Z,10.50
2018-04-01T03:56:25.940Z,12.50
2018-04-01T03:57:29.032Z,11.00
2018-04-01T03:58:32.160Z,11.00
2018-04-01T03:59:35.244Z,9.00
2018-04-01T04:00:38.572Z,12.00
2018-04-01T04:01:41.682Z,9.50
2018-04-01T04:02:45.584Z,11.75
2018-04-01T04:03:49.412Z,9.75
2018-04-01T04:04:53.051Z,9.00
2018-04-01T04:05:56.583Z,11.75
2018-04-01T04:07:01.161Z,13.75
2018-04-01T04:08:04.246Z,10.75
2018-04-01T04:09:07.363Z,12.00
2018-04-01T04:10:10.458Z,12.00
2018-04-01T04:11:13.716Z,9.50
2018-04-01T04:12:16.893Z,13.75
2018-04-01T04:13:20.155Z,13.75
2018-04-01T04:14:23.173Z,11.75
2018-04-01T04:15:26.242Z,11.00
2018-04-01T04:16:29.199Z,13.50
2018-04-01T04:17:32.179Z,12.00
2018-04-01T04:18:35.497Z,11.00
2018-04-01T04:19:38.576Z,11.00
2018-04-01T04:20:41.684Z,13.75
2018-04-01T04:21:44.759Z,13.25
2018-04-01T04:22:47.863Z,14.75
2018-04-01T04:23:50.900Z,11.00
2018-04-01T04:24:54.183Z,11.50
2018-04-01T04:25:57.135Z,10.00
2018-04-01T04:27:00.273Z,11.75
2018-04-01T04:28:03.277Z,9.50
2018-04-01T04:29:06.215Z,10.50
2018-04-01T04:30:09.358Z,11.50
2018-04-01T04:31:12.679Z,10.50
2018-04-01T04:32:15.802Z,10.00
2018-04-01T04:33:18.819Z,13.00
2018-04-01T04:34:21.811Z,10.50
2018-04-01T04:35:24.799Z,12.50
2018-04-01T04:36:27.962Z,9.50
2018-04-01T04:37:31.603Z,9.00
2018-04-01T04:38:34.748Z,11.00
2018-04-01T04:39:37.846Z,11.00
2018-04-01T04:40:41.211Z,11.00
2018-04-01T04:41:44.428Z,9.50
2018-04-01T04:42:47.658Z,11.00
2018-04-01T04:43:51.058Z,10.50
2018-04-01T04:44:54.071Z,13.00
2018-04-01T04:45:57.197Z,11.00
2018-04-01T04:47:00.230Z,11.50
2018-04-01T04:48:03.705Z,10.00
2018-04-01T04:49:07.792Z,11.00
2018-04-01T04:50:11.443Z,12.50
2018-04-01T04:51:14.414Z,10.00
2018-04-01T04:52:17.504Z,13.00
2018-04-01T04:53:20.557Z,11.00
2018-04-01T04:54:23.608Z,11.00
2018-04-01T04:55:26.764Z,10.00
2018-04-01T04:56:30.105Z,12.50
2018-04-01T04:57:33.262Z,13.00
2018-04-01T04:58:36.319Z,11.00
2018-04-01T04:59:39.439Z,11.00
2018-04-01T05:00:42.529Z,12.50
2018-04-01T05:01:45.784Z,12.50
2018-04-01T05:02:49.730Z,13.00
2018-04-01T05:03:52.894Z,13.50
2018-04-01T05:04:56.039Z,11.00
2018-04-01T05:05:59.190Z,10.50
2018-04-01T05:07:02.290Z,11.50
2018-04-01T05:08:05.604Z,11.00
2018-04-01T05:09:09.224Z,11.00
2018-04-01T05:10:12.389Z,11.50
2018-04-01T05:11:15.569Z,9.50
2018-04-01T05:12:19.209Z,11.00
2018-04-01T05:13:22.448Z,11.00
2018-04-01T05:14:25.774Z,9.00
2018-04-01T05:15:29.255Z,10.50
2018-04-01T05:16:32.509Z,9.00
2018-04-01T05:17:35.803Z,11.50
2018-04-01T05:18:39.009Z,11.50
2018-04-01T05:19:42.198Z,12.50
2018-04-01T05:20:45.867Z,13.00
2018-04-01T05:21:49.353Z,12.50
2018-04-01T05:22:52.433Z,12.00
2018-04-01T05:23:55.750Z,13.50
2018-04-01T05:24:58.787Z,9.00
2018-04-01T05:26:01.908Z,10.50
2018-04-01T05:27:05.056Z,12.00
2018-04-01T05:28:09.373Z,11.50
2018-04-01T05:29:12.644Z,13.50
2018-04-01T05:30:16.500Z,11.00
2018-04-01T05:31:20.293Z,13.50
2018-04-01T05:32:23.605Z,9.50
2018-04-01T05:33:27.246Z,16.50
2018-04-01T05:34:31.065Z,18.50
2018-04-01T05:35:34.357Z,15.00
2018-04-01T05:36:37.650Z,17.00
2018-04-01T05:37:40.918Z,17.75
2018-04-01T05:38:44.425Z,15.25
2018-04-01T05:39:47.641Z,16.25
2018-04-01T05:40:50.965Z,15.50
2018-04-01T05:41:53.997Z,13.75
2018-04-01T05:42:57.735Z,13.25
2018-04-01T05:44:00.764Z,11.25
2018-04-01T05:45:03.723Z,11.25
2018-04-01T05:46:06.909Z,13.25
2018-04-01T05:47:09.951Z,9.75
2018-04-01T05:48:13.211Z,13.75
2018-04-01T05:49:16.384Z,12.00
2018-04-01T05:50:19.549Z,10.50
2018-04-01T05:51:22.791Z,9.00
2018-04-01T05:52:26.020Z,9.00
2018-04-01T05:53:29.749Z,12.25
2018-04-01T05:54:32.869Z,10.50
2018-04-01T05:55:35.953Z,9.00
2018-04-01T05:56:39.407Z,11.50
2018-04-01T05:57:42.935Z,12.00
2018-04-01T05:58:46.548Z,11.00
2018-04-01T05:59:49.934Z,11.00
2018-04-01T06:00:53.912Z,11.00
2018-04-01T06:01:57.459Z,7.00
2018-04-01T06:03:01.161Z,10.50
2018-04-01T06:04:04.693Z,13.00
2018-04-01T06:05:07.956Z,11.50
2018-04-01T06:06:11.348Z,9.00
2018-04-01T06:07:15.473Z,15.00
2018-04-01T06:08:18.785Z,9.00
2018-04-01T06:09:22.491Z,11.00
2018-04-01T06:10:26.083Z,9.50
2018-04-01T06:11:29.953Z,11.00
2018-04-01T06:12:34.029Z,9.50
2018-04-01T06:13:37.548Z,10.50
2018-04-01T06:14:41.112Z,13.50
2018-04-01T06:15:45.830Z,13.00
2018-04-01T06:16:49.540Z,11.00
2018-04-01T06:17:53.240Z,11.00
2018-04-01T06:18:57.201Z,11.50
2018-04-01T06:20:00.500Z,11.50
2018-04-01T06:21:04.382Z,11.00
2018-04-01T06:22:08.074Z,11.00
2018-04-01T06:23:11.787Z,10.50
2018-04-01T06:24:15.542Z,11.50
2018-04-01T06:25:19.596Z,12.00
2018-04-01T06:26:23.223Z,12.00
2018-04-01T06:27:26.830Z,13.00
2018-04-01T06:28:30.465Z,9.50
2018-04-01T06:29:33.996Z,10.00
2018-04-01T06:30:37.421Z,15.00
2018-04-01T06:31:41.453Z,13.00
2018-04-01T06:32:44.969Z,12.00
2018-04-01T06:33:48.365Z,11.00
2018-04-01T06:34:51.669Z,11.50
2018-04-01T06:35:55.081Z,14.00
2018-04-01T06:36:59.406Z,16.50
2018-04-01T06:38:03.200Z,13.50
2018-04-01T06:39:06.863Z,14.00
2018-04-01T06:40:10.396Z,9.50
2018-04-01T06:41:14.252Z,13.00
2018-04-01T06:42:17.965Z,13.00
2018-04-01T06:43:21.683Z,10.00
2018-04-01T06:44:25.706Z,13.00
2018-04-01T06:45:29.505Z,13.00
2018-04-01T06:46:33.277Z,14.00
2018-04-01T06:47:36.461Z,13.00
2018-04-01T06:48:40.069Z,14.00
2018-04-01T06:49:43.370Z,13.50
2018-04-01T06:50:47.280Z,13.00
2018-04-01T06:51:50.980Z,12.00
2018-04-01T06:52:54.543Z,14.50
2018-04-01T06:53:58.076Z,17.50
2018-04-01T06:55:01.636Z,12.00
2018-04-01T06:56:05.231Z,13.50
2018-04-01T06:57:09.051Z,13.00
2018-04-01T06:58:12.467Z,18.00
2018-04-01T06:59:16.217Z,19.00
2018-04-01T07:00:19.758Z,14.00
2018-04-01T07:01:23.683Z,14.50
2018-04-01T07:02:27.253Z,15.00
2018-04-01T07:03:31.416Z,15.50
2018-04-01T07:04:35.320Z,17.00
2018-04-01T07:05:39.330Z,18.00
2018-04-01T07:06:42.761Z,14.00
2018-04-01T07:07:46.305Z,15.00
2018-04-01T07:08:49.774Z,14.00
2018-04-01T07:09:53.760Z,15.50
2018-04-01T07:10:59.412Z,11.50
2018-04-01T07:12:03.884Z,12.00
2018-04-01T07:13:08.117Z,11.50
2018-04-01T07:14:13.302Z,11.75
2018-04-01T07:15:16.833Z,7.75
2018-04-01T07:16:20.402Z,5.75
2018-04-01T07:17:23.899Z,7.25
2018-04-01T07:18:28.298Z,7.75
2018-04-01T07:19:33.013Z,7.75
2018-04-01T07:20:37.962Z,8.25
2018-04-01T07:21:42.442Z,6.00
2018-04-01T07:22:46.702Z,6.75
2018-04-01T07:23:50.319Z,6.25
2018-04-01T07:24:53.715Z,7.25
2018-04-01T07:25:57.233Z,4.00
2018-04-01T07:27:00.988Z,8.00
2018-04-01T07:28:05.190Z,5.25
2018-04-01T07:29:10.889Z,7.00
2018-04-01T07:30:14.638Z,7.00
2018-04-01T07:31:18.667Z,4.00
2018-04-01T07:32:22.284Z,6.50
2018-04-01T07:33:25.879Z,8.00
2018-04-01T07:34:29.679Z,4.00
2018-04-01T07:35:33.175Z,7.00
2018-04-01T07:36:37.526Z,3.50
2018-04-01T07:37:41.728Z,5.75
2018-04-01T07:38:45.582Z,8.25
2018-04-01T07:39:49.038Z,5.00
2018-04-01T07:40:52.821Z,4.25
2018-04-01T07:41:56.241Z,5.75
2018-04-01T07:43:00.357Z,3.75
2018-04-01T07:44:04.543Z,5.75
2018-04-01T07:45:08.224Z,5.25
2018-04-01T07:46:11.758Z,7.75
2018-04-01T07:47:15.404Z,6.75
2018-04-01T07:48:18.765Z,6.25
2018-04-01T07:49:22.164Z,6.25
2018-04-01T07:50:25.761Z,6.50
2018-04-01T07:51:30.328Z,5.00
2018-04-01T07:52:34.305Z,7.00
2018-04-01T07:53:38.339Z,7.50
2018-04-01T07:54:42.238Z,6.50
2018-04-01T07:55:45.725Z,5.00
2018-04-01T07:56:49.387Z,7.00
2018-04-01T07:57:53.751Z,4.50
2018-04-01T07:58:57.505Z,7.00
2018-04-01T08:00:02.244Z,7.50
2018-04-01T08:01:06.238Z,7.00
2018-04-01T08:02:10.293Z,5.00
2018-04-01T08:03:13.695Z,5.00
2018-04-01T08:04:17.188Z,7.00
2018-04-01T08:05:20.976Z,7.50
2018-04-01T08:06:25.604Z,7.00
2018-04-01T08:07:29.935Z,9.00
2018-04-01T08:08:33.525Z,6.50
2018-04-01T08:09:37.092Z,7.00
2018-04-01T08:10:40.472Z,6.50
2018-04-01T08:11:43.908Z,5.00
2018-04-01T08:12:48.215Z,6.00
2018-04-01T08:13:52.928Z,7.00
2018-04-01T08:14:56.876Z,5.00
2018-04-01T08:16:00.774Z,5.00
2018-04-01T08:17:04.476Z,7.00
2018-04-01T08:18:07.900Z,9.00
2018-04-01T08:19:11.491Z,7.00
2018-04-01T08:20:15.836Z,5.00
2018-04-01T08:21:19.958Z,7.50
2018-04-01T08:22:23.756Z,9.00
2018-04-01T08:23:27.316Z,9.00
2018-04-01T08:24:36.970Z,9.00
2018-04-01T08:25:43.113Z,9.00
2018-04-01T08:26:49.944Z,9.00
2018-04-01T08:28:01.247Z,7.50
2018-04-01T08:29:04.761Z,7.50
2018-04-01T08:30:08.235Z,11.00
2018-04-01T08:31:17.787Z,10.50
2018-04-01T08:32:21.145Z,5.50
2018-04-01T08:33:24.572Z,6.50
2018-04-01T08:34:28.490Z,7.00
2018-04-01T08:35:32.870Z,7.00
2018-04-01T08:36:37.170Z,7.00
2018-04-01T08:37:40.670Z,4.50
2018-04-01T08:38:43.958Z,3.50
2018-04-01T08:39:47.241Z,5.00
2018-04-01T08:40:52.383Z,7.00
2018-04-01T08:41:56.232Z,5.50
2018-04-01T08:43:01.186Z,4.50
2018-04-01T08:44:05.280Z,8.50
2018-04-01T08:45:09.984Z,5.00
2018-04-01T08:46:13.280Z,5.00
2018-04-01T08:47:16.558Z,6.50
2018-04-01T08:48:19.814Z,1.50
2018-04-01T08:49:23.243Z,3.00
2018-04-01T08:50:27.152Z,6.00
2018-04-01T08:51:30.633Z,5.00
2018-04-01T08:52:34.058Z,3.00
2018-04-01T08:53:37.253Z,3.00
2018-04-01T08:54:41.809Z,1.00
2018-04-01T08:55:46.194Z,3.00
2018-04-01T08:56:50.485Z,3.00
2018-04-01T08:57:53.872Z,3.00
2018-04-01T08:58:57.536Z,3.00
2018-04-01T09:00:01.049Z,2.00
2018-04-01T09:01:04.455Z,3.25
2018-04-01T09:02:08.009Z,2.75
2018-04-01T09:03:11.891Z,5.25
2018-04-01T09:04:15.513Z,3.75
2018-04-01T09:05:18.992Z,2.00
2018-04-01T09:06:22.786Z,3.50
2018-04-01T09:07:27.679Z,3.50
2018-04-01T09:08:32.694Z,2.00
2018-04-01T09:09:37.068Z,3.50
2018-04-01T09:10:42.689Z,3.00
2018-04-01T09:11:47.302Z,5.50
2018-04-01T09:12:52.134Z,3.50
2018-04-01T09:13:56.077Z,4.00
2018-04-01T09:14:59.610Z,3.00
2018-04-01T09:16:03.402Z,6.00
2018-04-01T09:17:06.744Z,4.00
2018-04-01T09:18:10.372Z,3.50
2018-04-01T09:19:14.355Z,4.00
2018-04-01T09:20:18.427Z,3.50
2018-04-01T09:21:21.758Z,2.00
2018-04-01T09:22:25.673Z,2.00
2018-04-01T09:23:29.145Z,5.00
2018-04-01T09:24:32.733Z,2.00
2018-04-01T09:25:37.326Z,2.00
2018-04-01T09:26:41.379Z,2.00
2018-04-01T09:27:45.125Z,2.00
2018-04-01T09:28:48.829Z,2.00
2018-04-01T09:29:52.271Z,2.00
2018-04-01T09:30:55.778Z,2.00
2018-04-01T09:31:59.375Z,2.00
2018-04-01T09:33:03.507Z,0.00
2018-04-01T09:34:08.050Z,2.00
2018-04-01T09:35:13.523Z,2.00
2018-04-01T09:36:16.949Z,0.50
2018-04-01T09:37:20.534Z,1.50
2018-04-01T09:38:23.814Z,2.00
2018-04-01T09:39:27.406Z,2.00
2018-04-01T09:40:32.421Z,2.00
2018-04-01T09:41:37.570Z,2.00
2018-04-01T09:42:42.669Z,2.00
2018-04-01T09:43:47.335Z,3.00
2018-04-01T09:44:50.892Z,4.00
2018-04-01T09:45:54.237Z,2.50
2018-04-01T09:46:57.631Z,3.50
2018-04-01T09:48:01.492Z,3.00
2018-04-01T09:49:05.287Z,2.00
2018-04-01T09:50:09.118Z,0.50
2018-04-01T09:51:12.485Z,2.00
2018-04-01T09:52:15.793Z,2.00
2018-04-01T09:53:19.347Z,2.00
2018-04-01T09:54:24.123Z,3.50
2018-04-01T09:55:27.965Z,3.50
2018-04-01T09:56:32.470Z,2.50
2018-04-01T09:57:36.048Z,4.00
2018-04-01T09:58:39.550Z,4.00
2018-04-01T09:59:42.884Z,6.00
2018-04-01T10:00:47.175Z,4.00
2018-04-01T10:01:51.030Z,5.00
2018-04-01T10:02:54.446Z,6.00
2018-04-01T10:03:58.606Z,5.50
2018-04-01T10:05:01.853Z,6.00
2018-04-01T10:06:05.227Z,5.50
2018-04-01T10:07:09.125Z,4.00
2018-04-01T10:08:12.556Z,5.00
2018-04-01T10:09:16.965Z,5.00
2018-04-01T10:10:20.465Z,8.00
2018-04-01T10:11:23.751Z,7.50
2018-04-01T10:12:27.224Z,4.00
2018-04-01T10:13:31.202Z,6.00
2018-04-01T10:14:35.019Z,5.50
2018-04-01T10:15:39.967Z,5.50
2018-04-01T10:16:43.395Z,5.50
2018-04-01T10:17:46.742Z,8.00
2018-04-01T10:18:50.115Z,6.00
2018-04-01T10:19:53.700Z,8.00
2018-04-01T10:20:57.263Z,5.50
2018-04-01T10:22:01.013Z,4.00
2018-04-01T10:23:05.219Z,4.00
2018-04-01T10:24:08.423Z,4.00
2018-04-01T10:25:11.880Z,6.00
2018-04-01T10:26:15.954Z,5.00
2018-04-01T10:27:20.439Z,5.50
2018-04-01T10:28:24.260Z,5.50
2018-04-01T10:29:27.753Z,4.00
2018-04-01T10:30:31.329Z,4.50
2018-04-01T10:31:34.577Z,4.00
2018-04-01T10:32:38.380Z,3.00
2018-04-01T10:33:41.892Z,4.00
2018-04-01T10:34:45.663Z,4.00
2018-04-01T10:35:48.938Z,3.50
2018-04-01T10:36:52.236Z,6.00
2018-04-01T10:37:55.494Z,6.00
2018-04-01T10:38:59.298Z,4.00
2018-04-01T10:40:03.124Z,6.50
2018-04-01T10:41:06.635Z,6.00
2018-04-01T10:42:09.857Z,4.00
2018-04-01T10:43:13.053Z,4.00
2018-04-01T10:44:16.785Z,5.00
2018-04-01T10:45:21.373Z,4.00
2018-04-01T10:46:26.031Z,2.00
2018-04-01T10:47:29.228Z,4.00
2018-04-01T10:48:32.433Z,4.00
2018-04-01T10:49:35.661Z,4.00
2018-04-01T10:50:39.138Z,2.00
2018-04-01T10:51:43.861Z,6.00
2018-04-01T10:52:47.429Z,4.00
2018-04-01T10:53:50.784Z,4.00
2018-04-01T10:54:54.315Z,5.50
2018-04-01T10:55:57.721Z,4.00
2018-04-01T10:57:01.560Z,6.00
2018-04-01T10:58:06.181Z,5.00
2018-04-01T10:59:10.240Z,4.00
2018-04-01T11:00:13.768Z,4.00
2018-04-01T11:01:17.035Z,3.50
2018-04-01T11:02:20.280Z,4.00
2018-04-01T11:03:23.567Z,4.00
2018-04-01T11:04:29.731Z,5.50
2018-04-01T11:05:35.302Z,5.00
2018-04-01T11:06:39.143Z,6.00
2018-04-01T11:07:42.461Z,4.00
2018-04-01T11:08:45.615Z,4.00
2018-04-01T11:09:48.832Z,5.50
2018-04-01T11:10:53.047Z,6.00
2018-04-01T11:11:57.339Z,5.25
2018-04-01T11:13:03.450Z,3.75
2018-04-01T11:14:06.906Z,8.00
2018-04-01T11:15:10.262Z,5.25
2018-04-01T11:16:13.680Z,6.25
2018-04-01T11:17:17.400Z,5.75
2018-04-01T11:18:20.835Z,7.75
2018-04-01T11:19:24.089Z,7.75
2018-04-01T11:20:28.109Z,6.25
2018-04-01T11:21:32.010Z,8.25
2018-04-01T11:22:37.546Z,7.75
2018-04-01T11:23:42.038Z,7.50
2018-04-01T11:24:45.619Z,8.75
2018-04-01T11:25:49.171Z,8.00
2018-04-01T11:26:52.638Z,10.00
2018-04-01T11:27:55.933Z,9.50
2018-04-01T11:28:59.229Z,8.50
2018-04-01T11:30:03.220Z,8.00
2018-04-01T11:31:06.545Z,8.50
2018-04-01T11:32:09.766Z,9.50
2018-04-01T11:33:13.038Z,7.00
2018-04-01T11:34:16.340Z,10.50
2018-04-01T11:35:20.470Z,10.00
2018-04-01T11:36:24.820Z,9.00
2018-04-01T11:37:27.984Z,8.00
2018-04-01T11:38:31.197Z,10.00
2018-04-01T11:39:34.406Z,7.75
2018-04-01T11:40:37.806Z,12.00
2018-04-01T11:41:41.320Z,13.00
2018-04-01T11:42:44.884Z,9.50
2018-04-01T11:43:48.170Z,9.50
2018-04-01T11:44:51.378Z,11.75
2018-04-01T11:45:54.763Z,11.50
2018-04-01T11:46:57.981Z,8.00
2018-04-01T11:48:01.676Z,11.00
2018-04-01T11:49:05.927Z,12.00
2018-04-01T11:50:09.395Z,11.00
2018-04-01T11:51:12.827Z,14.00
2018-04-01T11:52:16.177Z,10.50
2018-04-01T11:53:20.358Z,11.50
2018-04-01T11:54:24.066Z,10.50
2018-04-01T11:55:29.190Z,12.00
2018-04-01T11:56:32.460Z,11.00
2018-04-01T11:57:35.591Z,13.00
2018-04-01T11:58:38.739Z,9.50
2018-04-01T11:59:42.396Z,13.00
2018-04-01T12:00:46.919Z,13.75
2018-04-01T12:01:52.524Z,10.75
2018-04-01T12:02:55.936Z,14.00
2018-04-01T12:03:59.357Z,10.00
2018-04-01T12:05:02.712Z,10.00
2018-04-01T12:06:05.988Z,11.50
2018-04-01T12:07:09.541Z,12.00
2018-04-01T12:08:13.826Z,11.75
2018-04-01T12:09:17.097Z,12.75
2018-04-01T12:10:20.255Z,10.75
2018-04-01T12:11:23.581Z,9.75
2018-04-01T12:12:28.080Z,9.75
2018-04-01T12:13:32.579Z,10.25
2018-04-01T12:14:36.723Z,9.75
2018-04-01T12:15:40.221Z,11.75
2018-04-01T12:16:43.582Z,14.25
2018-04-01T12:17:46.893Z,9.75
2018-04-01T12:18:50.574Z,12.00
2018-04-01T12:19:54.005Z,14.25
2018-04-01T12:20:58.142Z,11.75
2018-04-01T12:22:01.500Z,10.25
2018-04-01T12:23:04.842Z,13.75
2018-04-01T12:24:08.216Z,11.25
2018-04-01T12:25:11.467Z,9.75
2018-04-01T12:26:17.333Z,11.25
2018-04-01T12:27:21.302Z,11.25
2018-04-01T12:28:24.837Z,12.25
2018-04-01T12:29:28.308Z,11.75
2018-04-01T12:30:31.505Z,9.75
2018-04-01T12:31:34.725Z,11.75
2018-04-01T12:32:38.103Z,12.75
2018-04-01T12:33:42.166Z,10.25
2018-04-01T12:34:46.259Z,9.75
2018-04-01T12:35:49.946Z,10.75
2018-04-01T12:36:53.347Z,8.25
2018-04-01T12:37:56.542Z,7.75
2018-04-01T12:38:59.811Z,8.75
2018-04-01T12:40:04.002Z,10.75
2018-04-01T12:41:08.502Z,8.00
2018-04-01T12:42:12.150Z,8.00
2018-04-01T12:43:15.396Z,7.00
2018-04-01T12:44:18.659Z,5.50
2018-04-01T12:45:21.869Z,5.00
2018-04-01T12:46:26.449Z,9.50
2018-04-01T12:47:30.743Z,5.00
2018-04-01T12:48:34.300Z,9.25
2018-04-01T12:49:38.240Z,6.00
2018-04-01T12:50:41.728Z,5.00
2018-04-01T12:51:45.114Z,5.00
2018-04-01T12:52:48.834Z,5.50
2018-04-01T12:53:52.193Z,4.50
2018-04-01T12:54:56.457Z,5.50
2018-04-01T12:56:00.608Z,6.50
2018-04-01T12:57:04.636Z,7.00
2018-04-01T12:58:08.802Z,4.50
2018-04-01T12:59:12.368Z,5.00
2018-04-01T13:00:16.072Z,5.00
2018-04-01T13:01:19.391Z,5.00
2018-04-01T13:02:23.051Z,5.00
2018-04-01T13:03:27.494Z,6.00
2018-04-01T13:04:31.164Z,5.50
2018-04-01T13:05:35.047Z,7.00
2018-04-01T13:06:38.506Z,7.00
2018-04-01T13:07:41.837Z,5.00
2018-04-01T13:08:45.110Z,7.00
2018-04-01T13:09:49.298Z,5.00
2018-04-01T13:10:52.833Z,8.50
2018-04-01T13:11:57.843Z,7.00
2018-04-01T13:13:01.222Z,7.00
2018-04-01T13:14:04.514Z,7.00
2018-04-01T13:15:07.924Z,7.00
2018-04-01T13:16:11.897Z,5.25
2018-04-01T13:17:15.870Z,5.00
2018-04-01T13:18:20.374Z,7.00
2018-04-01T13:19:23.864Z,7.00
2018-04-01T13:20:27.110Z,6.00
2018-04-01T13:21:30.364Z,4.00
2018-04-01T13:22:34.538Z,3.00
2018-04-01T13:23:39.297Z,4.00
2018-04-01T13:24:45.108Z,5.00
2018-04-01T13:25:48.998Z,4.50
2018-04-01T13:26:52.359Z,6.00
2018-04-01T13:27:55.596Z,5.00
2018-04-01T13:28:58.852Z,5.50
2018-04-01T13:30:02.366Z,5.00
2018-04-01T13:31:06.732Z,5.00
2018-04-01T13:32:11.172Z,9.00
2018-04-01T13:33:14.335Z,6.50
2018-04-01T13:34:17.458Z,6.00
2018-04-01T13:35:20.847Z,8.00
2018-04-01T13:36:24.477Z,8.00
2018-04-01T13:37:28.474Z,9.00
2018-04-01T13:38:34.118Z,7.00
2018-04-01T13:39:37.903Z,5.00
2018-04-01T13:40:41.432Z,7.00
2018-04-01T13:41:44.621Z,8.25
2018-04-01T13:42:47.862Z,7.00
2018-04-01T13:43:51.485Z,6.00
2018-04-01T13:44:54.791Z,9.00
2018-04-01T13:45:59.049Z,7.75
2018-04-01T13:47:02.882Z,7.75
2018-04-01T13:48:06.915Z,6.25
2018-04-01T13:49:10.451Z,7.50
2018-04-01T13:50:14.305Z,5.50
2018-04-01T13:51:17.510Z,6.50
2018-04-01T13:52:20.692Z,7.00
2018-04-01T13:53:23.950Z,8.50